createdAt,value
2024-05-09T00:00:30.518Z,0.00
2024-05-09T00:01:23.668Z,0.00
2024-05-09T00:02:23.808Z,0.00
2024-05-09T00:03:23.598Z,0.00
2024-05-09T00:04:23.657Z,0.00
2024-05-09T00:05:23.643Z,0.00
2024-05-09T00:06:23.523Z,0.00
2024-05-09T00:07:23.510Z,0.00
2024-05-09T00:08:23.656Z,0.00
2024-05-09T00:09:23.486Z,0.00
2024-05-09T00:10:32.627Z,0.00
2024-05-09T00:11:23.629Z,0.00
2024-05-09T00:12:23.533Z,0.00
2024-05-09T00:13:23.470Z,0.00
2024-05-09T00:14:23.560Z,0.00
2024-05-09T00:15:23.458Z,0.00
2024-05-09T00:16:23.453Z,0.00
2024-05-09T00:17:23.611Z,0.00
2024-05-09T00:18:23.666Z,0.00
2024-05-09T00:19:23.522Z,0.00
2024-05-09T00:20:28.593Z,0.00
2024-05-09T00:21:24.409Z,0.00
2024-05-09T00:22:23.351Z,0.00
2024-05-09T00:23:23.361Z,0.00
2024-05-09T00:24:23.354Z,0.00
2024-05-09T00:25:23.320Z,0.00
2024-05-09T00:26:23.380Z,0.00
2024-05-09T00:27:23.320Z,0.00
2024-05-09T00:28:23.306Z,0.00
2024-05-09T00:29:23.380Z,0.00
2024-05-09T00:30:31.649Z,0.00
2024-05-09T00:31:24.329Z,0.00
2024-05-09T00:32:23.391Z,0.00
2024-05-09T00:33:23.409Z,0.00
2024-05-09T00:34:23.306Z,0.00
2024-05-09T00:35:23.518Z,0.00
2024-05-09T00:36:23.210Z,0.00
2024-05-09T00:37:23.221Z,0.00
2024-05-09T00:38:23.252Z,0.00
2024-05-09T00:39:23.179Z,0.00
2024-05-09T00:40:31.117Z,0.00
2024-05-09T00:41:24.268Z,0.00
2024-05-09T00:42:23.151Z,0.00
2024-05-09T00:43:23.172Z,0.00
2024-05-09T00:44:23.253Z,0.00
2024-05-09T00:45:23.126Z,0.00
2024-05-09T00:46:23.112Z,0.00
2024-05-09T00:47:23.249Z,0.00
2024-05-09T00:48:23.207Z,0.00
2024-05-09T00:49:23.213Z,0.00
2024-05-09T00:50:29.918Z,0.00
2024-05-09T00:51:24.127Z,0.00
2024-05-09T00:52:23.038Z,0.00
2024-05-09T00:53:23.064Z,0.00
2024-05-09T00:54:23.103Z,0.00
2024-05-09T00:55:23.024Z,0.00
2024-05-09T00:56:23.047Z,0.00
2024-05-09T00:57:22.987Z,0.00
2024-05-09T00:58:23.022Z,0.00
2024-05-09T00:59:23.093Z,0.00
2024-05-09T01:00:31.133Z,0.00
2024-05-09T01:01:24.045Z,0.00
2024-05-09T01:02:23.101Z,0.00
2024-05-09T01:03:23.235Z,0.00
2024-05-09T01:04:22.952Z,0.00
2024-05-09T01:05:23.086Z,0.00
2024-05-09T01:06:22.889Z,0.00
2024-05-09T01:07:22.897Z,0.00
2024-05-09T01:08:22.892Z,0.00
2024-05-09T01:09:22.902Z,0.00
2024-05-09T01:10:28.299Z,0.00
2024-05-09T01:11:24.015Z,0.00
2024-05-09T01:12:22.871Z,0.00
2024-05-09T01:13:22.818Z,0.00
2024-05-09T01:14:22.903Z,0.00
2024-05-09T01:15:22.830Z,0.00
2024-05-09T01:16:22.821Z,0.00
2024-05-09T01:17:22.974Z,0.00
2024-05-09T01:18:22.906Z,0.00
2024-05-09T01:19:22.877Z,0.00
2024-05-09T01:20:31.879Z,0.00
2024-05-09T01:21:23.892Z,0.00
2024-05-09T01:22:22.726Z,0.00
2024-05-09T01:23:22.766Z,0.00
2024-05-09T01:24:22.729Z,0.00
2024-05-09T01:25:22.713Z,0.00
2024-05-09T01:26:22.695Z,0.00
2024-05-09T01:27:22.691Z,0.00
2024-05-09T01:28:22.671Z,0.00
2024-05-09T01:29:22.755Z,0.00
2024-05-09T01:30:31.256Z,0.00
2024-05-09T01:31:23.664Z,0.00
2024-05-09T01:32:22.788Z,0.00
2024-05-09T01:33:22.792Z,0.00
2024-05-09T01:34:22.689Z,0.00
2024-05-09T01:35:22.701Z,0.00
2024-05-09T01:36:22.583Z,0.00
2024-05-09T01:37:22.576Z,0.00
2024-05-09T01:38:22.610Z,0.00
2024-05-09T01:39:22.566Z,0.00
2024-05-09T01:40:29.275Z,0.00
2024-05-09T01:41:23.676Z,0.00
2024-05-09T01:42:22.543Z,0.00
2024-05-09T01:43:22.543Z,0.00
2024-05-09T01:44:22.638Z,0.00
2024-05-09T01:45:22.496Z,0.00
2024-05-09T01:46:22.485Z,0.00
2024-05-09T01:47:22.792Z,0.00
2024-05-09T01:48:22.624Z,0.00
2024-05-09T01:49:22.539Z,0.00
2024-05-09T01:50:28.930Z,0.00
2024-05-09T01:51:23.571Z,0.00
2024-05-09T01:52:22.418Z,0.00
2024-05-09T01:53:22.486Z,0.00
2024-05-09T01:54:22.409Z,0.00
2024-05-09T01:55:22.395Z,0.00
2024-05-09T01:56:22.427Z,0.00
2024-05-09T01:57:22.412Z,0.00
2024-05-09T01:58:22.354Z,0.00
2024-05-09T01:59:22.481Z,0.00
2024-05-09T02:00:33.191Z,0.00
2024-05-09T02:01:23.406Z,0.00
2024-05-09T02:02:22.417Z,0.00
2024-05-09T02:03:22.495Z,0.00
2024-05-09T02:04:22.482Z,0.00
2024-05-09T02:05:22.400Z,0.00
2024-05-09T02:06:22.287Z,0.00
2024-05-09T02:07:22.264Z,0.00
2024-05-09T02:08:22.478Z,0.00
2024-05-09T02:09:22.248Z,0.00
2024-05-09T02:10:26.570Z,0.00
2024-05-09T02:11:22.300Z,0.00
2024-05-09T02:12:22.383Z,0.00
2024-05-09T02:13:22.216Z,0.00
2024-05-09T02:14:22.249Z,0.00
2024-05-09T02:15:22.207Z,0.00
2024-05-09T02:16:22.213Z,0.00
2024-05-09T02:17:22.587Z,0.00
2024-05-09T02:18:22.397Z,0.00
2024-05-09T02:19:22.503Z,0.00
2024-05-09T02:20:30.579Z,0.00
2024-05-09T02:21:23.152Z,0.00
2024-05-09T02:22:22.106Z,0.00
2024-05-09T02:23:22.266Z,0.00
2024-05-09T02:24:22.101Z,0.00
2024-05-09T02:25:22.066Z,0.00
2024-05-09T02:26:22.147Z,0.00
2024-05-09T02:27:22.057Z,0.00
2024-05-09T02:28:22.041Z,0.00
2024-05-09T02:29:22.072Z,0.00
2024-05-09T02:30:30.099Z,0.00
2024-05-09T02:31:22.026Z,0.00
2024-05-09T02:32:22.221Z,0.00
2024-05-09T02:33:22.360Z,0.00
2024-05-09T02:34:22.133Z,0.00
2024-05-09T02:35:22.012Z,0.00
2024-05-09T02:36:21.970Z,0.00
2024-05-09T02:37:21.953Z,0.00
2024-05-09T02:38:21.976Z,0.00
2024-05-09T02:39:21.925Z,0.00
2024-05-09T02:40:29.126Z,0.00
2024-05-09T02:41:23.025Z,0.00
2024-05-09T02:42:21.908Z,0.00
2024-05-09T02:43:21.904Z,0.00
2024-05-09T02:44:21.934Z,0.00
2024-05-09T02:45:21.879Z,0.00
2024-05-09T02:46:21.849Z,0.00
2024-05-09T02:47:22.088Z,0.00
2024-05-09T02:48:22.187Z,0.00
2024-05-09T02:49:22.064Z,0.00
2024-05-09T02:50:29.864Z,0.00
2024-05-09T02:51:22.861Z,0.00
2024-05-09T02:52:21.835Z,0.00
2024-05-09T02:53:21.875Z,0.00
2024-05-09T02:54:21.797Z,0.00
2024-05-09T02:55:21.776Z,0.00
2024-05-09T02:56:21.818Z,0.00
2024-05-09T02:57:21.794Z,0.00
2024-05-09T02:58:21.731Z,0.00
2024-05-09T02:59:21.935Z,0.00
2024-05-09T03:00:26.504Z,0.00
2024-05-09T03:01:22.802Z,0.00
2024-05-09T03:02:21.819Z,0.00
2024-05-09T03:03:22.001Z,0.00
2024-05-09T03:04:21.879Z,0.00
2024-05-09T03:05:21.753Z,0.00
2024-05-09T03:06:21.658Z,0.00
2024-05-09T03:07:21.638Z,0.00
2024-05-09T03:08:21.749Z,0.00
2024-05-09T03:09:21.628Z,0.00
2024-05-09T03:10:25.673Z,0.00
2024-05-09T03:11:22.857Z,0.00
2024-05-09T03:12:21.649Z,0.00
2024-05-09T03:13:21.591Z,0.00
2024-05-09T03:14:21.713Z,0.00
2024-05-09T03:15:21.570Z,0.00
2024-05-09T03:16:21.548Z,0.00
2024-05-09T03:17:21.681Z,0.00
2024-05-09T03:18:21.617Z,0.00
2024-05-09T03:19:21.833Z,0.00
2024-05-09T03:20:27.330Z,0.00
2024-05-09T03:21:22.530Z,0.00
2024-05-09T03:22:21.432Z,1.00
2024-05-09T03:23:21.521Z,0.00
2024-05-09T03:24:21.478Z,0.00
2024-05-09T03:25:21.415Z,1.00
2024-05-09T03:26:21.451Z,1.00
2024-05-09T03:27:21.420Z,1.00
2024-05-09T03:28:21.425Z,0.00
2024-05-09T03:29:21.502Z,0.00
2024-05-09T03:30:29.639Z,0.00
2024-05-09T03:31:22.371Z,1.00
2024-05-09T03:32:21.587Z,0.00
2024-05-09T03:33:21.989Z,2.00
2024-05-09T03:34:21.395Z,1.00
2024-05-09T03:35:21.407Z,1.00
2024-05-09T03:36:21.314Z,4.00
2024-05-09T03:37:21.275Z,3.00
2024-05-09T03:38:21.409Z,2.00
2024-05-09T03:39:21.302Z,1.00
2024-05-09T03:40:26.330Z,2.00
2024-05-09T03:41:22.355Z,2.00
2024-05-09T03:42:21.251Z,3.00
2024-05-09T03:43:21.266Z,3.00
2024-05-09T03:44:21.366Z,4.00
2024-05-09T03:45:21.182Z,6.00
2024-05-09T03:46:21.253Z,7.00
2024-05-09T03:47:21.471Z,8.00
2024-05-09T03:48:21.507Z,8.00
2024-05-09T03:49:21.396Z,10.00
2024-05-09T03:50:26.465Z,12.00
2024-05-09T03:51:22.161Z,13.00
2024-05-09T03:52:21.124Z,12.00
2024-05-09T03:53:21.176Z,18.00
2024-05-09T03:54:21.128Z,22.00
2024-05-09T03:55:21.117Z,27.00
2024-05-09T03:56:21.164Z,30.00
2024-05-09T03:57:21.113Z,30.00
2024-05-09T03:58:21.062Z,40.00
2024-05-09T03:59:21.057Z,40.00
2024-05-09T04:00:30.546Z,46.00
2024-05-09T04:01:22.093Z,53.00
2024-05-09T04:02:21.137Z,56.00
2024-05-09T04:03:21.197Z,63.00
2024-05-09T04:04:21.097Z,65.00
2024-05-09T04:05:21.202Z,77.00
2024-05-09T04:06:20.969Z,79.00
2024-05-09T04:07:20.982Z,86.00
2024-05-09T04:08:20.978Z,96.00
2024-05-09T04:09:20.969Z,97.00
2024-05-09T04:10:27.885Z,106.00
2024-05-09T04:11:22.117Z,117.00
2024-05-09T04:12:20.954Z,123.00
2024-05-09T04:13:20.899Z,127.00
2024-05-09T04:14:20.950Z,138.00
2024-05-09T04:15:20.881Z,144.00
2024-05-09T04:16:20.874Z,150.00
2024-05-09T04:17:20.887Z,162.00
2024-05-09T04:18:20.937Z,174.00
2024-05-09T04:19:20.926Z,174.00
2024-05-09T04:20:29.535Z,186.00
2024-05-09T04:21:21.911Z,197.00
2024-05-09T04:22:20.803Z,202.00
2024-05-09T04:23:20.972Z,216.00
2024-05-09T04:24:20.786Z,219.00
2024-05-09T04:25:20.770Z,229.00
2024-05-09T04:26:20.821Z,244.00
2024-05-09T04:27:20.773Z,251.00
2024-05-09T04:28:20.768Z,258.00
2024-05-09T04:29:20.856Z,269.00
2024-05-09T04:30:26.509Z,280.00
2024-05-09T04:31:21.769Z,288.00
2024-05-09T04:32:20.807Z,298.00
2024-05-09T04:33:21.023Z,308.00
2024-05-09T04:34:20.790Z,322.00
2024-05-09T04:35:20.761Z,332.00
2024-05-09T04:36:20.666Z,335.00
2024-05-09T04:37:20.670Z,344.00
2024-05-09T04:38:20.738Z,350.00
2024-05-09T04:39:20.630Z,360.00
2024-05-09T04:40:28.210Z,371.00
2024-05-09T04:41:20.676Z,384.00
2024-05-09T04:42:20.602Z,390.00
2024-05-09T04:43:20.650Z,398.00
2024-05-09T04:44:20.627Z,404.00
2024-05-09T04:45:20.564Z,419.00
2024-05-09T04:46:20.558Z,425.00
2024-05-09T04:47:20.665Z,439.00
2024-05-09T04:48:20.658Z,443.00
2024-05-09T04:49:20.629Z,451.00
2024-05-09T04:50:29.379Z,462.00
2024-05-09T04:51:21.570Z,473.00
2024-05-09T04:52:20.505Z,476.00
2024-05-09T04:53:20.548Z,487.00
2024-05-09T04:55:20.471Z,510.00
2024-05-09T04:56:20.480Z,510.00
2024-05-09T04:57:20.443Z,527.00
2024-05-09T04:58:20.420Z,535.00
2024-05-09T04:59:20.457Z,540.00
2024-05-09T05:00:28.592Z,544.00
2024-05-09T05:01:21.506Z,560.00
2024-05-09T05:02:20.421Z,558.00
2024-05-09T05:03:20.529Z,570.00
2024-05-09T05:04:20.498Z,575.00
2024-05-09T05:05:20.432Z,591.00
2024-05-09T05:06:20.377Z,589.00
2024-05-09T05:07:20.349Z,597.00
2024-05-09T05:08:20.411Z,601.00
2024-05-09T05:09:20.395Z,609.00
2024-05-09T05:10:25.505Z,617.00
2024-05-09T05:11:21.430Z,614.00
2024-05-09T05:12:20.359Z,618.00
2024-05-09T05:13:21.576Z,627.00
2024-05-09T05:14:20.291Z,633.00
2024-05-09T05:15:20.256Z,633.00
2024-05-09T05:16:20.244Z,643.00
2024-05-09T05:17:20.404Z,643.00
2024-05-09T05:18:20.438Z,639.00
2024-05-09T05:19:20.346Z,635.00
2024-05-09T05:20:27.436Z,624.00
2024-05-09T05:21:21.425Z,613.00
2024-05-09T05:22:20.190Z,615.00
2024-05-09T05:23:20.414Z,595.00
2024-05-09T05:24:20.174Z,585.00
2024-05-09T05:25:20.176Z,579.00
2024-05-09T05:26:20.259Z,597.00
2024-05-09T05:27:20.146Z,557.00
2024-05-09T05:28:20.165Z,559.00
2024-05-09T05:29:20.903Z,521.00
2024-05-09T05:30:25.232Z,512.00
2024-05-09T05:31:21.139Z,522.00
2024-05-09T05:32:20.306Z,489.00
2024-05-09T05:33:20.603Z,534.00
2024-05-09T05:34:20.069Z,502.00
2024-05-09T05:35:20.099Z,551.00
2024-05-09T05:36:20.037Z,551.00
2024-05-09T05:37:20.027Z,521.00
2024-05-09T05:38:21.925Z,537.00
2024-05-09T05:39:20.002Z,538.00
2024-05-09T05:40:28.175Z,536.00
2024-05-09T05:41:20.076Z,534.00
2024-05-09T05:42:19.966Z,558.00
2024-05-09T05:43:19.965Z,565.00
2024-05-09T05:44:19.965Z,541.00
2024-05-09T05:45:19.938Z,574.00
2024-05-09T05:46:19.925Z,566.00
2024-05-09T05:47:20.097Z,583.00
2024-05-09T05:48:20.063Z,563.00
2024-05-09T05:49:20.171Z,597.00
2024-05-09T05:50:27.429Z,576.00
2024-05-09T05:51:20.997Z,596.00
2024-05-09T05:52:19.874Z,588.00
2024-05-09T05:53:19.927Z,577.00
2024-05-09T05:54:19.856Z,597.00
2024-05-09T05:55:19.837Z,580.00
2024-05-09T05:56:19.953Z,612.00
2024-05-09T05:57:19.847Z,584.00
2024-05-09T05:58:19.801Z,614.00
2024-05-09T05:59:19.818Z,591.00
2024-05-09T06:00:29.237Z,597.00
2024-05-09T06:01:20.898Z,607.00
2024-05-09T06:02:19.835Z,607.00
2024-05-09T06:03:19.800Z,612.00
2024-05-09T06:04:19.818Z,642.00
2024-05-09T06:05:19.760Z,621.00
2024-05-09T06:06:19.716Z,622.00
2024-05-09T06:07:19.702Z,648.00
2024-05-09T06:08:19.720Z,629.00
2024-05-09T06:09:19.691Z,661.00
2024-05-09T06:10:25.444Z,635.00
2024-05-09T06:11:19.782Z,640.00
2024-05-09T06:12:19.766Z,648.00
2024-05-09T06:13:19.659Z,679.00
2024-05-09T06:14:19.644Z,655.00
2024-05-09T06:15:19.629Z,660.00
2024-05-09T06:16:19.608Z,674.00
2024-05-09T06:17:19.749Z,667.00
2024-05-09T06:18:19.956Z,673.00
2024-05-09T06:19:19.779Z,675.00
2024-05-09T06:20:24.071Z,680.00
2024-05-09T06:21:20.769Z,686.00
2024-05-09T06:22:19.548Z,694.00
2024-05-09T06:23:19.579Z,698.00
2024-05-09T06:24:19.533Z,700.00
2024-05-09T06:25:19.556Z,705.00
2024-05-09T06:26:19.541Z,710.00
2024-05-09T06:27:19.506Z,714.00
2024-05-09T06:28:19.496Z,721.00
2024-05-09T06:29:19.583Z,721.00
2024-05-09T06:30:26.192Z,728.00
2024-05-09T06:31:20.490Z,750.00
2024-05-09T06:32:19.631Z,727.00
2024-05-09T06:33:19.673Z,741.00
2024-05-09T06:34:19.683Z,784.00
2024-05-09T06:35:19.466Z,735.00
2024-05-09T06:36:19.408Z,745.00
2024-05-09T06:37:19.416Z,758.00
2024-05-09T06:38:19.475Z,763.00
2024-05-09T06:39:19.379Z,769.00
2024-05-09T06:40:25.611Z,769.00
2024-05-09T06:41:20.429Z,773.00
2024-05-09T06:42:19.366Z,777.00
2024-05-09T06:43:20.005Z,782.00
2024-05-09T06:44:19.373Z,793.00
2024-05-09T06:45:19.320Z,787.00
2024-05-09T06:46:19.294Z,788.00
2024-05-09T06:47:19.373Z,791.00
2024-05-09T06:48:20.056Z,808.00
2024-05-09T06:49:19.442Z,800.00
2024-05-09T06:50:24.008Z,796.00
2024-05-09T06:51:20.312Z,800.00
2024-05-09T06:52:19.259Z,799.00
2024-05-09T06:53:19.294Z,806.00
2024-05-09T06:54:19.227Z,810.00
2024-05-09T06:55:19.205Z,816.00
2024-05-09T06:56:19.248Z,851.00
2024-05-09T06:57:19.186Z,814.00
2024-05-09T06:58:19.170Z,823.00
2024-05-09T06:59:19.240Z,823.00
2024-05-09T07:00:27.411Z,828.00
2024-05-09T07:01:20.270Z,838.00
2024-05-09T07:02:19.242Z,833.00
2024-05-09T07:03:19.808Z,827.00
2024-05-09T07:04:19.159Z,832.00
2024-05-09T07:05:19.165Z,838.00
2024-05-09T07:06:19.087Z,854.00
2024-05-09T07:07:19.076Z,838.00
2024-05-09T07:08:19.498Z,839.00
2024-05-09T07:09:19.056Z,846.00
2024-05-09T07:10:25.644Z,851.00
2024-05-09T07:11:19.122Z,855.00
2024-05-09T07:12:19.212Z,859.00
2024-05-09T07:13:19.013Z,864.00
2024-05-09T07:14:19.057Z,877.00
2024-05-09T07:15:18.990Z,870.00
2024-05-09T07:16:18.988Z,897.00
2024-05-09T07:17:19.110Z,905.00
2024-05-09T07:18:19.870Z,895.00
2024-05-09T07:19:19.220Z,918.00
2024-05-09T07:20:23.544Z,926.00
2024-05-09T07:21:19.980Z,920.00
2024-05-09T07:22:18.915Z,924.00
2024-05-09T07:23:19.227Z,896.00
2024-05-09T07:24:18.907Z,947.00
2024-05-09T07:25:18.885Z,920.00
2024-05-09T07:26:19.007Z,922.00
2024-05-09T07:27:18.869Z,959.00
2024-05-09T07:28:19.091Z,924.00
2024-05-09T07:29:18.930Z,923.00
2024-05-09T07:30:26.951Z,915.00
2024-05-09T07:31:19.850Z,925.00
2024-05-09T07:32:19.135Z,937.00
2024-05-09T07:33:19.884Z,916.00
2024-05-09T07:34:19.266Z,926.00
2024-05-09T07:35:18.809Z,936.00
2024-05-09T07:36:18.781Z,928.00
2024-05-09T07:37:18.772Z,967.00
2024-05-09T07:38:18.998Z,939.00
2024-05-09T07:39:18.755Z,955.00
2024-05-09T07:40:28.527Z,929.00
2024-05-09T07:41:19.822Z,944.00
2024-05-09T07:42:18.708Z,931.00
2024-05-09T07:43:18.707Z,938.00
2024-05-09T07:44:18.747Z,947.00
2024-05-09T07:45:40.232Z,955.00
2024-05-09T07:48:29.039Z,976.00
2024-05-09T07:53:38.239Z,1003.00
2024-05-09T07:54:18.808Z,1016.00
2024-05-09T07:55:18.934Z,1004.00
2024-05-09T07:56:19.748Z,1036.00
2024-05-09T07:57:18.696Z,1032.00
2024-05-09T07:58:18.616Z,1046.00
2024-05-09T07:59:18.529Z,1046.00
2024-05-09T08:00:23.723Z,1033.00
2024-05-09T08:01:19.930Z,1062.00
2024-05-09T08:02:18.635Z,1089.00
2024-05-09T08:03:18.648Z,1088.00
2024-05-09T08:04:18.569Z,1132.00
2024-05-09T08:05:18.545Z,1125.00
2024-05-09T08:06:18.463Z,1153.00
2024-05-09T08:07:18.488Z,1168.00
2024-05-09T08:08:18.432Z,1166.00
2024-05-09T08:09:21.148Z,1180.00
2024-05-09T08:10:22.238Z,1183.00
2024-05-09T08:11:19.520Z,1234.00
2024-05-09T08:12:18.408Z,1246.00
2024-05-09T08:13:18.453Z,1224.00
2024-05-09T08:14:18.372Z,1263.00
2024-05-09T08:15:18.360Z,1313.00
2024-05-09T08:16:18.362Z,1324.00
2024-05-09T08:17:18.442Z,1340.00
2024-05-09T08:18:18.432Z,1333.00
2024-05-09T08:19:18.364Z,1355.00
2024-05-09T08:20:26.845Z,1389.00
2024-05-09T08:21:19.387Z,1421.00
2024-05-09T08:22:18.321Z,1426.00
2024-05-09T08:23:18.293Z,1401.00
2024-05-09T08:24:18.267Z,1482.00
2024-05-09T08:25:18.405Z,1516.00
2024-05-09T08:26:18.260Z,1494.00
2024-05-09T08:27:18.252Z,1527.00
2024-05-09T08:28:18.313Z,1537.00
2024-05-09T08:29:18.211Z,1640.00
2024-05-09T08:30:24.782Z,1601.00
2024-05-09T08:31:19.364Z,1635.00
2024-05-09T08:32:18.224Z,1653.00
2024-05-09T08:33:18.345Z,1700.00
2024-05-09T08:34:18.372Z,1688.00
2024-05-09T08:35:18.160Z,1732.00
2024-05-09T08:36:18.147Z,1726.00
2024-05-09T08:37:22.482Z,1773.00
2024-05-09T08:38:19.150Z,1768.00
2024-05-09T08:39:18.119Z,1840.00
2024-05-09T08:40:24.104Z,1928.00
2024-05-09T08:41:19.130Z,1863.00
2024-05-09T08:42:18.149Z,1948.00
2024-05-09T08:43:18.082Z,1921.00
2024-05-09T08:44:18.072Z,1997.00
2024-05-09T08:45:18.054Z,2027.00
2024-05-09T08:46:18.047Z,2053.00
2024-05-09T08:47:18.081Z,2087.00
2024-05-09T08:48:18.297Z,2113.00
2024-05-09T08:49:18.113Z,2146.00
2024-05-09T08:50:28.794Z,2129.00
2024-05-09T08:51:19.018Z,2176.00
2024-05-09T08:52:18.035Z,2218.00
2024-05-09T08:53:18.005Z,2237.00
2024-05-09T08:54:17.959Z,2317.00
2024-05-09T08:55:17.955Z,2389.00
2024-05-09T08:56:17.933Z,2285.00
2024-05-09T08:57:17.932Z,2357.00
2024-05-09T08:58:17.987Z,2484.00
2024-05-09T08:59:17.902Z,2490.00
2024-05-09T09:00:25.828Z,2444.00
2024-05-09T09:01:19.004Z,2554.00
2024-05-09T09:02:18.115Z,2629.00
2024-05-09T09:03:18.041Z,2632.00
2024-05-09T09:04:17.981Z,2623.00
2024-05-09T09:05:18.085Z,2746.00
2024-05-09T09:06:17.832Z,2897.00
2024-05-09T09:07:17.853Z,2744.00
2024-05-09T09:08:17.816Z,3008.00
2024-05-09T09:09:17.819Z,4618.00
2024-05-09T09:10:25.125Z,887.00
2024-05-09T09:11:18.841Z,2674.00
2024-05-09T09:12:17.770Z,2875.00
2024-05-09T09:13:17.834Z,3101.00
2024-05-09T09:14:17.759Z,2775.00
2024-05-09T09:15:17.745Z,3243.00
2024-05-09T09:16:17.848Z,3209.00
2024-05-09T09:17:17.760Z,3156.00
2024-05-09T09:18:18.302Z,3278.00
2024-05-09T09:19:17.892Z,3150.00
2024-05-09T09:20:25.937Z,3076.00
2024-05-09T09:21:18.714Z,3059.00
2024-05-09T09:22:17.698Z,2938.00
2024-05-09T09:23:17.658Z,4467.00
2024-05-09T09:24:17.656Z,2050.00
2024-05-09T09:25:17.679Z,1676.00
2024-05-09T09:26:17.631Z,1405.00
2024-05-09T09:27:17.621Z,866.00
2024-05-09T09:28:17.774Z,2774.00
2024-05-09T09:29:17.600Z,3006.00
2024-05-09T09:30:31.407Z,4439.00
2024-05-09T09:31:18.693Z,1474.00
2024-05-09T09:32:17.601Z,2711.00
2024-05-09T09:33:17.732Z,5709.00
2024-05-09T09:34:17.809Z,2786.00
2024-05-09T09:35:17.547Z,2438.00
2024-05-09T09:36:17.542Z,2417.00
2024-05-09T09:37:17.596Z,2525.00
2024-05-09T09:38:17.505Z,2496.00
2024-05-09T09:39:17.490Z,2217.00
2024-05-09T09:40:18.452Z,2044.00
2024-05-09T09:41:17.495Z,1448.00
2024-05-09T09:42:17.471Z,7464.00
2024-05-09T09:43:17.538Z,3445.00
2024-05-09T09:44:17.482Z,3339.00
2024-05-09T09:45:17.460Z,3686.00
2024-05-09T09:46:17.442Z,3618.00
2024-05-09T09:47:17.484Z,3656.00
2024-05-09T09:48:17.519Z,2955.00
2024-05-09T09:49:17.519Z,3070.00
2024-05-09T09:50:23.889Z,3429.00
2024-05-09T09:51:18.429Z,1718.00
2024-05-09T09:52:17.410Z,4343.00
2024-05-09T09:53:17.360Z,4481.00
2024-05-09T09:54:17.343Z,8960.00
2024-05-09T09:55:17.391Z,1876.00
2024-05-09T09:56:17.318Z,6579.00
2024-05-09T09:57:17.337Z,6392.00
2024-05-09T09:58:17.570Z,4519.00
2024-05-09T09:59:17.294Z,3594.00
2024-05-09T10:00:23.988Z,7200.00
2024-05-09T10:01:18.336Z,4749.00
2024-05-09T10:02:17.462Z,4265.00
2024-05-09T10:03:17.352Z,3953.00
2024-05-09T10:04:17.400Z,3459.00
2024-05-09T10:05:17.305Z,3230.00
2024-05-09T10:06:17.217Z,3033.00
2024-05-09T10:07:17.282Z,3264.00
2024-05-09T10:08:17.204Z,3968.00
2024-05-09T10:09:17.191Z,4203.00
2024-05-09T10:10:22.967Z,4328.00
2024-05-09T10:11:18.267Z,4138.00
2024-05-09T10:12:17.182Z,4014.00
2024-05-09T10:13:17.219Z,3861.00
2024-05-09T10:14:17.151Z,2129.00
2024-05-09T10:15:17.122Z,5459.00
2024-05-09T10:16:17.172Z,4914.00
2024-05-09T10:17:17.129Z,5727.00
2024-05-09T10:18:17.318Z,4286.00
2024-05-09T10:19:17.154Z,2752.00
2024-05-09T10:20:21.942Z,4678.00
2024-05-09T10:21:18.116Z,4959.00
2024-05-09T10:22:17.161Z,2863.00
2024-05-09T10:23:17.040Z,1779.00
2024-05-09T10:24:17.053Z,8534.00
2024-05-09T10:25:17.187Z,3766.00
2024-05-09T10:26:17.012Z,4217.00
2024-05-09T10:27:17.000Z,3497.00
2024-05-09T10:28:17.066Z,3991.00
2024-05-09T10:29:17.077Z,8544.00
2024-05-09T10:30:25.790Z,2366.00
2024-05-09T10:31:18.049Z,3838.00
2024-05-09T10:32:16.986Z,17614.00
2024-05-09T10:33:17.031Z,5145.00
2024-05-09T10:34:17.064Z,5800.00
2024-05-09T10:35:16.917Z,5311.00
2024-05-09T10:36:16.901Z,4792.00
2024-05-09T10:37:17.036Z,4333.00
2024-05-09T10:38:16.901Z,4382.00
2024-05-09T10:39:16.873Z,3979.00
2024-05-09T10:40:23.481Z,3813.00
2024-05-09T10:41:17.887Z,4234.00
2024-05-09T10:42:16.853Z,3822.00
2024-05-09T10:43:16.970Z,4407.00
2024-05-09T10:44:16.823Z,4098.00
2024-05-09T10:45:16.844Z,5053.00
2024-05-09T10:46:17.113Z,5647.00
2024-05-09T10:47:16.823Z,5604.00
2024-05-09T10:48:16.919Z,4928.00
2024-05-09T10:49:16.930Z,4952.00
2024-05-09T10:50:22.649Z,5362.00
2024-05-09T10:51:17.808Z,5056.00
2024-05-09T10:52:16.803Z,4344.00
2024-05-09T10:53:16.730Z,4281.00
2024-05-09T10:54:16.725Z,2558.00
2024-05-09T10:55:16.771Z,11464.00
2024-05-09T10:56:17.251Z,9364.00
2024-05-09T10:57:16.684Z,8170.00
2024-05-09T10:58:16.759Z,5788.00
2024-05-09T10:59:16.662Z,5407.00
2024-05-09T11:00:27.004Z,5660.00
2024-05-09T11:01:17.750Z,2814.00
2024-05-09T11:02:16.816Z,4181.00
2024-05-09T11:03:16.713Z,12923.00
2024-05-09T11:04:16.977Z,24218.00
2024-05-09T11:05:16.843Z,14816.00
2024-05-09T11:06:16.624Z,3410.00
2024-05-09T11:07:16.623Z,18804.00
2024-05-09T11:08:16.613Z,4556.00
2024-05-09T11:09:16.587Z,59903.00
2024-05-09T11:10:24.389Z,78030.00
2024-05-09T11:11:17.617Z,77337.00
2024-05-09T11:12:16.574Z,59504.00
2024-05-09T11:13:16.587Z,4174.00
2024-05-09T11:14:16.519Z,4239.00
2024-05-09T11:15:16.526Z,28222.00
2024-05-09T11:16:16.976Z,4153.00
2024-05-09T11:17:16.527Z,76519.00
2024-05-09T11:18:16.735Z,68034.00
2024-05-09T11:19:16.645Z,10596.00
2024-05-09T11:20:22.958Z,17747.00
2024-05-09T11:21:17.470Z,24495.00
2024-05-09T11:22:16.565Z,22493.00
2024-05-09T11:23:16.429Z,19510.00
2024-05-09T11:24:16.410Z,30566.00
2024-05-09T11:25:16.451Z,15823.00
2024-05-09T11:26:16.390Z,6773.00
2024-05-09T11:27:16.380Z,2317.00
2024-05-09T11:28:16.470Z,11239.00
2024-05-09T11:29:19.272Z,13356.00
2024-05-09T11:30:23.783Z,10998.00
2024-05-09T11:31:17.650Z,3031.00
2024-05-09T11:32:16.506Z,7356.00
2024-05-09T11:33:16.389Z,20686.00
2024-05-09T11:34:16.450Z,4318.00
2024-05-09T11:35:16.353Z,19814.00
2024-05-09T11:36:16.294Z,17718.00
2024-05-09T11:37:16.508Z,8805.00
2024-05-09T11:38:16.320Z,4526.00
2024-05-09T11:39:16.262Z,2150.00
2024-05-09T11:40:21.547Z,9936.00
2024-05-09T11:41:17.302Z,5295.00
2024-05-09T11:42:16.364Z,3870.00
2024-05-09T11:43:16.364Z,2322.00
2024-05-09T11:44:16.215Z,11564.00
2024-05-09T11:45:16.360Z,6140.00
2024-05-09T11:46:16.279Z,5677.00
2024-05-09T11:47:16.255Z,5076.00
2024-05-09T11:48:16.434Z,4514.00
2024-05-09T11:49:16.263Z,4461.00
2024-05-09T11:50:26.398Z,4988.00
2024-05-09T11:51:17.163Z,4961.00
2024-05-09T11:52:16.220Z,5141.00
2024-05-09T11:53:16.121Z,5837.00
2024-05-09T11:54:16.104Z,5731.00
2024-05-09T11:55:16.179Z,2326.00
2024-05-09T11:56:16.083Z,8681.00
2024-05-09T11:57:16.072Z,6454.00
2024-05-09T11:58:16.145Z,7833.00
2024-05-09T11:59:16.054Z,5226.00
2024-05-09T12:00:24.525Z,3402.00
2024-05-09T12:01:16.094Z,13019.00
2024-05-09T12:02:16.174Z,16939.00
2024-05-09T12:03:16.062Z,3453.00
2024-05-09T12:04:16.203Z,11835.00
2024-05-09T12:05:16.187Z,21536.00
2024-05-09T12:06:16.031Z,15069.00
2024-05-09T12:07:16.060Z,6277.00
2024-05-09T12:08:15.960Z,5956.00
2024-05-09T12:09:15.957Z,6547.00
2024-05-09T12:10:19.830Z,4020.00
2024-05-09T12:11:17.071Z,16209.00
2024-05-09T12:12:15.922Z,7221.00
2024-05-09T12:13:15.943Z,11717.00
2024-05-09T12:14:15.899Z,3559.00
2024-05-09T12:15:15.969Z,20721.00
2024-05-09T12:16:15.950Z,12528.00
2024-05-09T12:17:15.900Z,9410.00
2024-05-09T12:18:15.897Z,8113.00
2024-05-09T12:19:15.956Z,16387.00
2024-05-09T12:20:21.557Z,10871.00
2024-05-09T12:21:16.907Z,9674.00
2024-05-09T12:22:15.954Z,70368.00
2024-05-09T12:23:15.813Z,9970.00
2024-05-09T12:24:18.478Z,79585.00
2024-05-09T12:25:15.977Z,80946.00
2024-05-09T12:26:15.831Z,81919.00
2024-05-09T12:27:15.779Z,79562.00
2024-05-09T12:28:15.929Z,79926.00
2024-05-09T12:29:15.762Z,82435.00
2024-05-09T12:30:20.945Z,83052.00
2024-05-09T12:31:15.779Z,83119.00
2024-05-09T12:32:15.793Z,82127.00
2024-05-09T12:33:15.899Z,77269.00
2024-05-09T12:34:15.825Z,76094.00
2024-05-09T12:35:15.770Z,75845.00
2024-05-09T12:36:15.707Z,75723.00
2024-05-09T12:37:15.801Z,75993.00
2024-05-09T12:38:15.746Z,75832.00
2024-05-09T12:39:15.688Z,75752.00